createdAt,value
2023-01-13T00:00:40.221Z,100864.66
2023-01-13T00:03:06.805Z,100872.62
2023-01-13T00:05:33.315Z,100876.03
2023-01-13T00:07:59.735Z,100868.13
2023-01-13T00:10:26.136Z,100875.28
2023-01-13T00:12:53.543Z,100872.94
2023-01-13T00:15:19.958Z,100876.63
2023-01-13T00:17:46.454Z,100868.72
2023-01-13T00:20:12.855Z,100862.34
2023-01-13T00:22:39.360Z,100861.75
2023-01-13T00:25:06.678Z,100860.13
2023-01-13T00:27:33.191Z,100855.72
2023-01-13T00:29:59.752Z,100859.16
2023-01-13T00:32:26.210Z,100856.75
2023-01-13T00:34:52.979Z,100854.25
2023-01-13T00:37:19.433Z,100857.59
2023-01-13T00:39:45.952Z,100854.84
2023-01-13T00:42:30.760Z,100851.47
2023-01-13T00:44:57.153Z,100856.03
2023-01-13T00:47:23.588Z,100860.78
2023-01-13T00:49:52.768Z,100864.19
2023-01-13T00:52:19.187Z,100867.34
2023-01-13T00:54:45.701Z,100858.91
2023-01-13T00:57:12.131Z,100860.13
2023-01-13T00:59:38.518Z,100855.13
2023-01-13T01:02:05.073Z,100854.09
2023-01-13T01:04:31.740Z,100859.88
2023-01-13T01:06:58.167Z,100851.66
2023-01-13T01:09:26.590Z,100851.16
2023-01-13T01:11:52.963Z,100853.13
2023-01-13T01:14:19.344Z,100842.69
2023-01-13T01:16:45.766Z,100844.91
2023-01-13T01:19:12.154Z,100843.75
2023-01-13T01:21:39.779Z,100837.97
2023-01-13T01:24:06.342Z,100837.34
2023-01-13T01:26:32.824Z,100837.34
2023-01-13T01:28:59.369Z,100842.09
2023-01-13T01:31:26.434Z,100843.84
2023-01-13T01:33:53.175Z,100837.97
2023-01-13T01:36:19.880Z,100830.56
2023-01-13T01:38:46.287Z,100833.06
2023-01-13T01:41:14.098Z,100824.56
2023-01-13T01:44:01.618Z,100824.47
2023-01-13T01:46:37.887Z,100825.16
2023-01-13T01:49:09.243Z,100818.91
2023-01-13T01:51:37.178Z,100820.56
2023-01-13T01:54:04.235Z,100819.53
2023-01-13T01:56:30.742Z,100813.72
2023-01-13T01:58:57.124Z,100812.97
2023-01-13T02:01:23.682Z,100811.75
2023-01-13T02:03:52.649Z,100813.28
2023-01-13T02:06:19.044Z,100813.88
2023-01-13T02:08:45.432Z,100812.75
2023-01-13T02:11:50.114Z,100808.84
2023-01-13T02:14:19.514Z,100808.56
2023-01-13T02:17:09.161Z,100809.16
2023-01-13T02:19:49.096Z,100799.81
2023-01-13T02:22:18.499Z,100794.75
2023-01-13T02:24:58.948Z,100806.56
2023-01-13T02:27:31.789Z,100804.75
2023-01-13T02:30:26.289Z,100805.16
2023-01-13T02:33:11.205Z,100802.25
2023-01-13T02:35:40.701Z,100790.19
2023-01-13T02:38:07.097Z,100797.97
2023-01-13T02:40:48.623Z,100793.03
2023-01-13T02:43:35.744Z,100794.84
2023-01-13T02:46:08.163Z,100789.81
2023-01-13T02:48:34.708Z,100782.94
2023-01-13T02:51:03.395Z,100794.94
2023-01-13T02:53:37.653Z,100786.13
2023-01-13T02:56:04.784Z,100791.09
2023-01-13T02:58:31.839Z,100783.88
2023-01-13T03:00:58.358Z,100789.41
2023-01-13T03:03:25.135Z,100780.59
2023-01-13T03:05:55.975Z,100778.19
2023-01-13T03:08:47.717Z,100783.06
2023-01-13T03:11:14.883Z,100777.25
2023-01-13T03:13:47.483Z,100778.47
2023-01-13T03:16:19.074Z,100774.81
2023-01-13T03:18:47.321Z,100761.66
2023-01-13T03:21:21.395Z,100770.34
2023-01-13T03:23:58.075Z,100766.59
2023-01-13T03:26:26.779Z,100769.81
2023-01-13T03:28:54.847Z,100767.50
2023-01-13T03:31:22.715Z,100767.06
2023-01-13T03:33:51.413Z,100774.19
2023-01-13T03:36:17.927Z,100773.69
2023-01-13T03:38:45.221Z,100768.53
2023-01-13T03:41:30.632Z,100762.06
2023-01-13T03:44:24.556Z,100762.16
2023-01-13T03:47:09.758Z,100761.59
2023-01-13T03:49:37.800Z,100751.25
2023-01-13T03:52:05.543Z,100751.06
2023-01-13T03:54:32.490Z,100754.59
2023-01-13T03:56:59.822Z,100745.19
2023-01-13T03:59:33.697Z,100750.59
2023-01-13T04:02:00.306Z,100751.81
2023-01-13T04:04:29.071Z,100738.03
2023-01-13T04:07:02.610Z,100743.31
2023-01-13T04:09:34.940Z,100748.81
2023-01-13T04:12:04.367Z,100751.03
2023-01-13T04:14:30.805Z,100750.19
2023-01-13T04:16:57.310Z,100749.31
2023-01-13T04:19:23.717Z,100745.00
2023-01-13T04:21:50.137Z,100750.62
2023-01-13T04:24:16.553Z,100753.19
2023-01-13T04:26:42.992Z,100748.78
2023-01-13T04:29:09.446Z,100758.38
2023-01-13T04:31:36.027Z,100757.22
2023-01-13T04:34:02.520Z,100761.00
2023-01-13T04:36:28.953Z,100760.13
2023-01-13T04:38:55.417Z,100757.78
2023-01-13T04:41:21.867Z,100770.97
2023-01-13T04:43:48.307Z,100762.63
2023-01-13T04:46:15.062Z,100760.69
2023-01-13T04:48:41.512Z,100759.41
2023-01-13T04:51:08.062Z,100763.56
2023-01-13T04:53:34.677Z,100761.47
2023-01-13T04:56:01.129Z,100751.81
2023-01-13T04:58:27.635Z,100763.31
2023-01-13T05:00:54.989Z,100763.91
2023-01-13T05:03:24.224Z,100761.06
2023-01-13T05:05:51.234Z,100763.75
2023-01-13T05:08:17.626Z,100769.75
2023-01-13T05:10:44.017Z,100768.91
2023-01-13T05:13:29.297Z,100768.03
2023-01-13T05:16:14.308Z,100771.59
2023-01-13T05:18:40.772Z,100762.50
2023-01-13T05:21:27.154Z,100767.91
2023-01-13T05:24:12.138Z,100774.28
2023-01-13T05:26:38.541Z,100785.78
2023-01-13T05:29:04.996Z,100776.84
2023-01-13T05:31:31.441Z,100776.97
2023-01-13T05:33:57.861Z,100782.37
2023-01-13T05:36:24.420Z,100784.09
2023-01-13T05:38:51.568Z,100789.34
2023-01-13T05:41:44.097Z,100785.06
2023-01-13T05:44:10.522Z,100782.94
2023-01-13T05:46:37.060Z,100776.69
2023-01-13T05:49:03.684Z,100775.84
2023-01-13T05:51:30.193Z,100774.16
2023-01-13T05:53:56.615Z,100784.78
2023-01-13T05:56:23.079Z,100783.84
2023-01-13T05:58:49.563Z,100780.13
2023-01-13T06:01:16.043Z,100781.84
2023-01-13T06:03:42.542Z,100779.16
2023-01-13T06:06:09.187Z,100784.41
2023-01-13T06:08:37.460Z,100780.72
2023-01-13T06:11:05.170Z,100782.44
2023-01-13T06:13:31.659Z,100775.19
2023-01-13T06:15:58.413Z,100776.06
2023-01-13T06:18:24.982Z,100771.50
2023-01-13T06:20:51.362Z,100778.50
2023-01-13T06:23:17.779Z,100783.00
2023-01-13T06:25:59.607Z,100781.19
2023-01-13T06:28:26.091Z,100780.19
2023-01-13T06:30:53.310Z,100790.84
2023-01-13T06:33:20.831Z,100787.19
2023-01-13T06:35:50.074Z,100795.50
2023-01-13T06:38:16.552Z,100787.13
2023-01-13T06:40:42.989Z,100791.88
2023-01-13T06:43:16.580Z,100791.16
2023-01-13T06:45:46.447Z,100793.66
2023-01-13T06:48:13.083Z,100796.13
2023-01-13T06:50:39.573Z,100797.25
2023-01-13T06:53:06.162Z,100798.47
2023-01-13T06:55:32.695Z,100805.84
2023-01-13T06:57:59.194Z,100803.88
2023-01-13T07:00:25.911Z,100802.87
2023-01-13T07:02:52.402Z,100805.19
2023-01-13T07:05:19.008Z,100810.41
2023-01-13T07:07:45.765Z,100805.47
2023-01-13T07:10:22.144Z,100806.56
2023-01-13T07:13:07.482Z,100807.81
2023-01-13T07:15:34.042Z,100815.88
2023-01-13T07:18:00.606Z,100810.50
2023-01-13T07:20:27.570Z,100812.50
2023-01-13T07:22:54.787Z,100806.19
2023-01-13T07:25:21.432Z,100791.75
2023-01-13T07:27:47.891Z,100798.34
2023-01-13T07:30:14.399Z,100796.41
2023-01-13T07:32:40.957Z,100797.34
2023-01-13T07:35:07.572Z,100806.87
2023-01-13T07:37:34.648Z,100810.16
2023-01-13T07:40:01.358Z,100804.78
2023-01-13T07:42:46.398Z,100805.53
2023-01-13T07:45:12.826Z,100796.28
2023-01-13T07:47:39.329Z,100808.62
2023-01-13T07:50:06.017Z,100806.56
2023-01-13T07:52:32.538Z,100826.19
2023-01-13T07:54:58.967Z,100822.56
2023-01-13T07:57:25.392Z,100810.47
2023-01-13T07:59:51.844Z,100816.25
2023-01-13T08:02:18.589Z,100826.19
2023-01-13T08:04:45.041Z,100813.97
2023-01-13T08:07:13.245Z,100828.69
2023-01-13T08:09:39.781Z,100818.91
2023-01-13T08:12:25.370Z,100838.75
2023-01-13T08:14:54.373Z,100836.06
2023-01-13T08:17:23.268Z,100841.66
2023-01-13T08:19:49.807Z,100839.31
2023-01-13T08:22:16.240Z,100838.59
2023-01-13T08:24:42.710Z,100832.72
2023-01-13T08:27:09.191Z,100838.69
2023-01-13T08:29:35.675Z,100842.09
2023-01-13T08:32:04.719Z,100839.12
2023-01-13T08:34:31.674Z,100843.28
2023-01-13T08:36:58.102Z,100843.03
2023-01-13T08:39:25.084Z,100845.34
2023-01-13T08:41:58.415Z,100845.22
2023-01-13T08:44:28.672Z,100854.41
2023-01-13T08:46:55.312Z,100843.03
2023-01-13T08:49:22.000Z,100851.59
2023-01-13T08:51:48.897Z,100851.72
2023-01-13T08:54:15.452Z,100860.41
2023-01-13T08:56:42.521Z,100868.59
2023-01-13T08:59:16.470Z,100862.00
2023-01-13T09:01:43.133Z,100864.13
2023-01-13T09:04:36.267Z,100852.97
2023-01-13T09:07:03.009Z,100865.25
2023-01-13T09:09:29.432Z,100852.66
2023-01-13T09:12:14.643Z,100850.78
2023-01-13T09:14:41.166Z,100858.03
2023-01-13T09:17:10.621Z,100866.19
2023-01-13T09:19:37.126Z,100857.09
2023-01-13T09:22:03.556Z,100865.34
2023-01-13T09:24:30.043Z,100855.31
2023-01-13T09:26:56.483Z,100853.13
2023-01-13T09:29:23.040Z,100843.69
2023-01-13T09:31:49.551Z,100855.19
2023-01-13T09:34:35.898Z,100859.88
2023-01-13T09:37:02.457Z,100856.44
2023-01-13T09:39:28.973Z,100859.16
2023-01-13T09:42:17.087Z,100859.41
2023-01-13T09:44:52.686Z,100855.25
2023-01-13T09:47:32.865Z,100857.22
2023-01-13T09:50:22.774Z,100852.69
2023-01-13T09:52:49.208Z,100842.44
2023-01-13T09:55:16.828Z,100846.00
2023-01-13T09:57:43.239Z,100856.16
2023-01-13T10:00:11.428Z,100847.25
2023-01-13T10:02:43.749Z,100850.03
2023-01-13T10:05:27.310Z,100848.94
2023-01-13T10:07:58.587Z,100847.50
2023-01-13T10:10:45.306Z,100839.44
2023-01-13T10:13:22.211Z,100839.88
2023-01-13T10:16:12.066Z,100841.38
2023-01-13T10:18:57.556Z,100839.16
2023-01-13T10:21:27.838Z,100842.81
2023-01-13T10:24:01.717Z,100834.69
2023-01-13T10:26:45.509Z,100834.06
2023-01-13T10:29:24.811Z,100834.50
2023-01-13T10:31:54.931Z,100841.84
2023-01-13T10:34:21.775Z,100840.47
2023-01-13T10:36:58.245Z,100849.66
2023-01-13T10:39:24.681Z,100845.88
2023-01-13T10:42:00.389Z,100836.13
2023-01-13T10:44:27.123Z,100829.72
2023-01-13T10:46:54.301Z,100820.34
2023-01-13T10:49:34.020Z,100820.28
2023-01-13T10:52:00.964Z,100819.63
2023-01-13T10:54:27.452Z,100819.09
2023-01-13T10:57:13.501Z,100815.22
2023-01-13T10:59:40.397Z,100818.56
2023-01-13T11:02:23.824Z,100807.00
2023-01-13T11:05:00.647Z,100795.16
2023-01-13T11:07:34.359Z,100791.72
2023-01-13T11:10:11.203Z,100788.84
2023-01-13T11:12:43.823Z,100795.59
2023-01-13T11:15:11.838Z,100789.03
2023-01-13T11:17:40.412Z,100796.09
2023-01-13T11:20:06.858Z,100780.03
2023-01-13T11:22:34.181Z,100786.66
2023-01-13T11:25:04.418Z,100782.19
2023-01-13T11:27:30.863Z,100784.44
2023-01-13T11:30:12.628Z,100774.53
2023-01-13T11:32:40.856Z,100764.72
2023-01-13T11:35:15.063Z,100762.00
2023-01-13T11:37:42.215Z,100761.41
2023-01-13T11:40:27.501Z,100764.59
2023-01-13T11:42:54.693Z,100760.47
2023-01-13T11:45:21.217Z,100764.25
2023-01-13T11:47:48.559Z,100764.19
2023-01-13T11:50:36.323Z,100758.16
2023-01-13T11:53:05.878Z,100754.78
2023-01-13T11:55:39.868Z,100745.41
2023-01-13T11:58:06.421Z,100742.16
2023-01-13T12:00:34.990Z,100740.25
2023-01-13T12:03:08.057Z,100730.47
2023-01-13T12:05:39.575Z,100718.50
2023-01-13T12:08:12.209Z,100718.25
2023-01-13T12:10:48.806Z,100711.69
2023-01-13T12:13:20.341Z,100700.81
2023-01-13T12:16:02.670Z,100695.19
2023-01-13T12:18:58.465Z,100686.44
2023-01-13T12:21:33.283Z,100683.00
2023-01-13T12:24:05.848Z,100681.94
2023-01-13T12:26:34.476Z,100678.75
2023-01-13T12:29:02.665Z,100686.44
2023-01-13T12:31:29.263Z,100687.06
2023-01-13T12:33:55.709Z,100681.06
2023-01-13T12:36:22.068Z,100675.56
2023-01-13T12:38:49.388Z,100691.34
2023-01-13T12:41:19.478Z,100694.03
2023-01-13T12:44:05.231Z,100699.16
2023-01-13T12:46:31.620Z,100689.75
2023-01-13T12:49:04.919Z,100697.09
2023-01-13T12:51:34.184Z,100689.13
2023-01-13T12:54:00.954Z,100686.47
2023-01-13T12:56:40.381Z,100694.28
2023-01-13T12:59:33.345Z,100681.44
2023-01-13T13:02:12.157Z,100693.53
2023-01-13T13:04:42.897Z,100683.63
2023-01-13T13:07:10.355Z,100689.00
2023-01-13T13:09:39.861Z,100686.78
2023-01-13T13:12:43.894Z,100682.03
2023-01-13T13:15:20.327Z,100690.47
2023-01-13T13:18:00.402Z,100693.06
2023-01-13T13:20:45.368Z,100697.31
2023-01-13T13:23:30.645Z,100700.63
2023-01-13T13:26:01.392Z,100697.06
2023-01-13T13:28:28.141Z,100706.34
2023-01-13T13:31:01.016Z,100683.81
2023-01-13T13:33:27.453Z,100698.25
2023-01-13T13:35:56.947Z,100691.19
2023-01-13T13:39:00.886Z,100692.53
2023-01-13T13:41:47.559Z,100690.22
2023-01-13T13:44:52.895Z,100692.94
2023-01-13T13:47:19.458Z,100688.41
2023-01-13T13:49:49.359Z,100693.63
2023-01-13T13:52:20.112Z,100693.63
2023-01-13T13:54:49.257Z,100693.06
2023-01-13T13:57:20.052Z,100698.78
2023-01-13T13:59:47.071Z,100712.47
2023-01-13T14:02:22.718Z,100714.41
2023-01-13T14:04:49.255Z,100709.41
2023-01-13T14:07:18.450Z,100712.84
2023-01-13T14:09:46.041Z,100715.56
2023-01-13T14:12:22.904Z,100722.53
2023-01-13T14:14:49.816Z,100713.34
2023-01-13T14:17:20.287Z,100716.78
2023-01-13T14:19:50.893Z,100726.31
2023-01-13T14:22:17.475Z,100719.66
2023-01-13T14:24:58.377Z,100721.06
2023-01-13T14:27:27.462Z,100729.19
2023-01-13T14:29:58.244Z,100717.28
2023-01-13T14:32:28.537Z,100713.06
2023-01-13T14:34:55.058Z,100715.84
2023-01-13T14:37:25.607Z,100712.78
2023-01-13T14:39:53.980Z,100715.09
2023-01-13T14:42:21.656Z,100711.75
2023-01-13T14:44:49.215Z,100709.78
2023-01-13T14:47:20.225Z,100715.41
2023-01-13T14:50:04.818Z,100720.12
2023-01-13T14:52:32.647Z,100720.25
2023-01-13T14:54:59.160Z,100727.34
2023-01-13T14:57:27.391Z,100726.50
2023-01-13T14:59:59.247Z,100725.50
2023-01-13T15:02:25.777Z,100722.81
2023-01-13T15:04:58.683Z,100723.66
2023-01-13T15:07:26.011Z,100718.66
2023-01-13T15:09:56.011Z,100722.94
2023-01-13T15:12:23.793Z,100714.97
2023-01-13T15:14:52.676Z,100716.56
2023-01-13T15:17:19.216Z,100716.44
2023-01-13T15:19:47.499Z,100715.47
2023-01-13T15:22:13.993Z,100711.66
2023-01-13T15:24:40.530Z,100715.09
2023-01-13T15:27:14.063Z,100712.25
2023-01-13T15:29:43.074Z,100719.97
2023-01-13T15:32:22.575Z,100713.59
2023-01-13T15:34:51.866Z,100711.75
2023-01-13T15:37:19.556Z,100712.22
2023-01-13T15:39:48.213Z,100718.06
2023-01-13T15:42:33.440Z,100714.38
2023-01-13T15:45:18.291Z,100718.66
2023-01-13T15:47:44.932Z,100718.66
2023-01-13T15:50:15.140Z,100725.50
2023-01-13T15:52:41.799Z,100719.09
2023-01-13T15:55:08.390Z,100724.34
2023-01-13T15:57:38.427Z,100724.97
2023-01-13T16:00:15.593Z,100730.25
2023-01-13T16:02:42.194Z,100733.66
2023-01-13T16:05:08.808Z,100734.34
2023-01-13T16:07:35.353Z,100726.16
2023-01-13T16:10:03.584Z,100731.41
2023-01-13T16:12:30.124Z,100727.84
2023-01-13T16:14:56.553Z,100725.16
2023-01-13T16:17:23.715Z,100726.00
2023-01-13T16:19:50.251Z,100726.00
2023-01-13T16:22:16.689Z,100718.91
2023-01-13T16:24:43.586Z,100723.47
2023-01-13T16:27:14.415Z,100717.22
2023-01-13T16:29:41.159Z,100721.00
2023-01-13T16:32:07.697Z,100720.31
2023-01-13T16:34:34.223Z,100727.66
2023-01-13T16:37:00.760Z,100724.84
2023-01-13T16:39:27.262Z,100723.97
2023-01-13T16:41:53.801Z,100718.00
2023-01-13T16:44:20.291Z,100721.56
2023-01-13T16:46:47.687Z,100731.50
2023-01-13T16:49:14.468Z,100726.09
2023-01-13T16:51:40.879Z,100725.25
2023-01-13T16:54:07.327Z,100713.31
2023-01-13T16:56:34.443Z,100713.31
2023-01-13T16:59:04.438Z,100704.38
2023-01-13T17:01:31.562Z,100708.94
2023-01-13T17:03:58.141Z,100716.88
2023-01-13T17:06:25.672Z,100715.63
2023-01-13T17:08:53.299Z,100710.22
2023-01-13T17:11:19.936Z,100713.91
2023-01-13T17:13:46.569Z,100710.38
2023-01-13T17:16:15.247Z,100712.78
2023-01-13T17:18:41.794Z,100714.53
2023-01-13T17:21:08.320Z,100720.62
2023-01-13T17:23:34.686Z,100708.97
2023-01-13T17:26:01.117Z,100720.62
2023-01-13T17:28:27.718Z,100731.41
2023-01-13T17:30:54.176Z,100741.19
2023-01-13T17:33:20.566Z,100731.25
2023-01-13T17:35:47.137Z,100728.56
2023-01-13T17:38:13.638Z,100725.63
2023-01-13T17:40:40.130Z,100734.69
2023-01-13T17:43:06.537Z,100738.25
2023-01-13T17:45:33.028Z,100737.06
2023-01-13T17:47:59.687Z,100747.91
2023-01-13T17:50:27.740Z,100742.37
2023-01-13T17:52:54.367Z,100747.97
2023-01-13T17:55:20.822Z,100747.41
2023-01-13T17:57:47.245Z,100745.00
2023-01-13T18:00:13.914Z,100739.41
2023-01-13T18:02:40.377Z,100743.56
2023-01-13T18:05:06.900Z,100743.13
2023-01-13T18:07:33.314Z,100751.41
2023-01-13T18:09:59.740Z,100743.00
2023-01-13T18:12:26.158Z,100745.97
2023-01-13T18:14:52.556Z,100748.53
2023-01-13T18:17:20.160Z,100753.56
2023-01-13T18:20:05.578Z,100757.97
2023-01-13T18:22:50.596Z,100756.88
2023-01-13T18:25:35.850Z,100751.87
2023-01-13T18:28:02.930Z,100758.06
2023-01-13T18:30:29.368Z,100754.63
2023-01-13T18:32:56.234Z,100757.56
2023-01-13T18:35:22.686Z,100758.66
2023-01-13T18:37:49.088Z,100756.06
2023-01-13T18:40:17.826Z,100763.31
2023-01-13T18:42:56.074Z,100757.31
2023-01-13T18:45:26.471Z,100758.06
2023-01-13T18:47:53.416Z,100759.03
2023-01-13T18:50:19.946Z,100765.53
2023-01-13T18:52:46.423Z,100763.69
2023-01-13T18:55:13.024Z,100770.66
2023-01-13T18:57:42.160Z,100769.81
2023-01-13T19:00:09.648Z,100768.69
2023-01-13T19:02:36.170Z,100773.94
2023-01-13T19:05:02.648Z,100769.34
2023-01-13T19:07:29.627Z,100779.13
2023-01-13T19:09:56.211Z,100776.19
2023-01-13T19:12:30.914Z,100781.28
2023-01-13T19:14:57.638Z,100783.88
2023-01-13T19:17:24.617Z,100774.78
2023-01-13T19:19:52.823Z,100770.25
2023-01-13T19:22:23.410Z,100780.78
2023-01-13T19:24:50.097Z,100781.50
2023-01-13T19:27:16.889Z,100784.81
2023-01-13T19:29:51.886Z,100787.34
2023-01-13T19:32:19.111Z,100791.66
2023-01-13T19:34:46.802Z,100797.62
2023-01-13T19:37:13.279Z,100798.50
2023-01-13T19:39:39.702Z,100803.59
2023-01-13T19:42:24.927Z,100802.50
2023-01-13T19:45:10.100Z,100808.59
2023-01-13T19:47:38.521Z,100811.03
2023-01-13T19:50:06.630Z,100807.34
2023-01-13T19:52:33.122Z,100810.91
2023-01-13T19:54:59.682Z,100817.88
2023-01-13T19:57:26.214Z,100818.75
2023-01-13T19:59:52.604Z,100841.16
2023-01-13T20:02:28.825Z,100846.16
2023-01-13T20:04:56.072Z,100857.13
2023-01-13T20:07:23.672Z,100860.03
2023-01-13T20:09:50.482Z,100853.78
2023-01-13T20:12:17.067Z,100854.25
2023-01-13T20:14:43.709Z,100840.91
2023-01-13T20:17:11.818Z,100838.62
2023-01-13T20:19:38.276Z,100854.09
2023-01-13T20:22:04.882Z,100846.75
2023-01-13T20:24:31.279Z,100835.28
2023-01-13T20:26:57.815Z,100839.75
2023-01-13T20:29:24.269Z,100849.91
2023-01-13T20:31:50.752Z,100838.81
2023-01-13T20:34:20.119Z,100828.97
2023-01-13T20:36:47.070Z,100833.28
2023-01-13T20:39:17.802Z,100828.66
2023-01-13T20:42:02.961Z,100833.31
2023-01-13T20:44:29.487Z,100828.19
2023-01-13T20:46:57.735Z,100826.94
2023-01-13T20:49:24.384Z,100815.81
2023-01-13T20:51:50.775Z,100817.31
2023-01-13T20:54:17.473Z,100826.87
2023-01-13T20:56:43.915Z,100825.59
2023-01-13T20:59:10.403Z,100830.66
2023-01-13T21:01:37.005Z,100834.19
2023-01-13T21:04:04.402Z,100836.03
2023-01-13T21:06:30.840Z,100847.72
2023-01-13T21:08:57.317Z,100851.59
2023-01-13T21:11:43.031Z,100850.56
2023-01-13T21:14:32.472Z,100849.78
2023-01-13T21:16:58.859Z,100848.00
2023-01-13T21:19:25.291Z,100840.87
2023-01-13T21:21:51.706Z,100834.59
2023-01-13T21:24:18.378Z,100823.97
2023-01-13T21:26:44.893Z,100826.31
2023-01-13T21:29:11.379Z,100825.47
2023-01-13T21:31:37.863Z,100823.09
2023-01-13T21:34:05.136Z,100821.28
2023-01-13T21:36:31.608Z,100822.34
2023-01-13T21:38:58.444Z,100812.63
2023-01-13T21:41:44.176Z,100815.84
2023-01-13T21:44:35.918Z,100819.87
2023-01-13T21:47:34.892Z,100812.81
2023-01-13T21:50:01.445Z,100807.78
2023-01-13T21:52:28.078Z,100803.28
2023-01-13T21:55:13.073Z,100804.00
2023-01-13T21:57:39.483Z,100804.97
2023-01-13T22:00:06.247Z,100795.09
2023-01-13T22:02:33.052Z,100797.03
2023-01-13T22:04:59.893Z,100787.91
2023-01-13T22:07:27.656Z,100793.50
2023-01-13T22:09:54.393Z,100802.41
2023-01-13T22:12:24.690Z,100800.22
2023-01-13T22:14:54.050Z,100805.72
2023-01-13T22:17:23.853Z,100817.59
2023-01-13T22:19:51.335Z,100832.59
2023-01-13T22:22:18.860Z,100851.56
2023-01-13T22:24:46.443Z,100868.19
2023-01-13T22:27:13.634Z,100881.22
2023-01-13T22:29:42.546Z,100883.69
2023-01-13T22:32:11.725Z,100882.97
2023-01-13T22:34:38.129Z,100883.50
2023-01-13T22:37:04.656Z,100902.25
2023-01-13T22:39:31.108Z,100899.34
2023-01-13T22:41:57.526Z,100893.56
2023-01-13T22:44:26.440Z,100899.03
2023-01-13T22:46:53.013Z,100907.81
2023-01-13T22:49:19.512Z,100913.06
2023-01-13T22:51:46.162Z,100915.72
2023-01-13T22:54:12.691Z,100911.16
2023-01-13T22:56:39.181Z,100914.13
2023-01-13T22:59:09.815Z,100911.22
2023-01-13T23:01:38.359Z,100903.00
2023-01-13T23:04:07.385Z,100896.78
2023-01-13T23:06:36.221Z,100903.12
2023-01-13T23:09:05.195Z,100891.25
2023-01-13T23:11:31.703Z,100881.94
2023-01-13T23:13:59.569Z,100871.63
2023-01-13T23:16:26.158Z,100865.84
2023-01-13T23:18:52.554Z,100858.44
2023-01-13T23:21:20.027Z,100851.25
2023-01-13T23:23:46.499Z,100836.03
2023-01-13T23:26:12.969Z,100818.91
2023-01-13T23:28:39.426Z,100822.22
2023-01-13T23:31:06.819Z,100819.00
2023-01-13T23:33:33.332Z,100822.81
2023-01-13T23:36:03.458Z,100831.94
2023-01-13T23:38:29.920Z,100839.84
2023-01-13T23:40:56.481Z,100842.00
2023-01-13T23:43:23.189Z,100836.94
2023-01-13T23:45:49.912Z,100835.59
2023-01-13T23:48:16.859Z,100837.06
2023-01-13T23:50:56.027Z,100832.06
2023-01-13T23:53:22.592Z,100835.03
2023-01-13T23:55:51.140Z,100835.69
2023-01-13T23:58:17.709Z,100822.69
